Terminal Aerodrome Forecast
Issued by NWS

Home | Current Version | Previous Version | Graphics & Text | Print | Product List | Glossary On
Versions: 1 2 3 4 5 6 7 8 9 10 11 12 13 14 15 16 17 18 19
000
FTUS43 KUNR 171253 AAA
TAFGCC
TAF AMD
KGCC 171253Z 1713/1812 36009KT P6SM BKN040
     FM171800 34013KT P6SM VCSH OVC035
     FM180000 32013KT P6SM SCT025 BKN040=

USA.gov is the U.S. government's official web portal to all federal, state and local government web resources and services.